Time;durP1;ratioP1;P1;durP2;ratioP2;P2;SDS_P1;SDS_P2;PMS_P1;PMS_P2;Temp;Humidity;BMP_temperature;BMP_pressure;BME280_temperature;BME280_humidity;BME280_pressure;Samples;Min_cycle;Max_cycle;Signal;HPM_P1;HPM_P2
2023/04/19 00:00:28;;;;;;;6.10;5.50;;;13.80;77.90;13.90;96868.00;;;;5022894;28;20690;-83
2023/04/19 00:02:55;;;;;;;5.93;5.43;;;13.80;77.90;13.90;96865.00;;;;5027882;28;20661;-84
2023/04/19 00:05:23;;;;;;;6.67;6.07;;;13.80;77.90;13.90;96865.00;;;;5005246;28;20204;-83
2023/04/19 00:07:52;;;;;;;6.27;5.73;;;13.80;77.90;13.90;96860.00;;;;5025186;28;20194;-84
2023/04/19 00:10:19;;;;;;;6.63;6.03;;;13.80;78.10;13.90;96861.00;;;;5021501;28;20649;-83
2023/04/19 00:12:48;;;;;;;7.47;6.87;;;13.80;78.20;13.90;96858.00;;;;5019895;28;20846;-86
2023/04/19 00:15:15;;;;;;;7.20;6.50;;;13.80;78.10;13.90;96852.00;;;;4997447;28;20206;-84
2023/04/19 00:17:43;;;;;;;8.03;7.20;;;13.80;78.20;13.90;96854.00;;;;5017837;28;20240;-83
2023/04/19 00:20:14;;;;;;;9.97;7.10;;;13.80;78.20;13.90;96851.00;;;;5001185;28;20198;-83
2023/04/19 00:22:43;;;;;;;7.70;6.90;;;13.80;78.30;13.90;96851.00;;;;5015318;28;20923;-84
2023/04/19 00:25:11;;;;;;;7.77;7.07;;;13.80;78.50;13.90;96854.00;;;;4999533;28;20197;-84
2023/04/19 00:27:38;;;;;;;7.27;6.67;;;13.80;78.80;13.90;96853.00;;;;5013545;28;20210;-83
2023/04/19 00:30:08;;;;;;;7.23;6.63;;;13.80;78.80;13.90;96853.00;;;;5020242;28;20221;-84
2023/04/19 00:32:36;;;;;;;8.50;7.70;;;13.80;78.80;13.90;96845.00;;;;5014089;28;20658;-85
2023/04/19 00:35:04;;;;;;;7.93;7.13;;;13.80;78.80;13.80;96849.00;;;;5020508;28;20263;-85
2023/04/19 00:37:32;;;;;;;8.23;7.43;;;13.80;78.80;13.80;96837.00;;;;5020934;28;20200;-84
2023/04/19 00:39:59;;;;;;;7.63;7.03;;;13.80;78.80;13.80;96838.00;;;;5021912;28;20809;-83
2023/04/19 00:42:28;;;;;;;8.30;7.50;;;13.80;78.90;13.80;96830.00;;;;5019566;28;20217;-85
2023/04/19 00:44:55;;;;;;;8.67;7.67;;;13.80;78.90;13.80;96831.00;;;;5018612;28;20710;-84
2023/04/19 00:47:26;;;;;;;8.33;7.53;;;13.70;79.00;13.80;96829.00;;;;5025451;28;20584;-84
2023/04/19 00:49:54;;;;;;;8.00;7.27;;;13.70;79.10;13.80;96818.00;;;;5019179;28;20635;-84
2023/04/19 00:52:23;;;;;;;8.60;7.37;;;13.70;79.10;13.80;96824.00;;;;5018549;28;20209;-85
2023/04/19 00:54:50;;;;;;;7.57;6.87;;;13.70;79.20;13.90;96828.00;;;;5021171;28;20297;-84
2023/04/19 00:57:18;;;;;;;8.33;7.43;;;13.80;79.20;13.90;96822.00;;;;5025999;28;20202;-84
2023/04/19 00:59:46;;;;;;;8.93;8.03;;;13.80;79.40;13.90;96828.00;;;;5011817;28;20202;-83
2023/04/19 01:02:13;;;;;;;7.73;7.03;;;13.80;79.40;13.90;96827.00;;;;5018497;28;20586;-83
2023/04/19 01:04:42;;;;;;;9.67;7.50;;;13.80;79.40;13.90;96821.00;;;;5011439;28;20234;-84
2023/04/19 01:07:10;;;;;;;8.87;7.73;;;13.70;79.30;13.90;96818.00;;;;5021254;28;20285;-84
2023/04/19 01:09:46;;;;;;;9.13;8.20;;;13.80;79.40;13.90;96814.00;;;;5021659;28;20581;-84
2023/04/19 01:12:13;;;;;;;8.97;8.17;;;13.80;79.40;13.90;96811.00;;;;5034371;28;20200;-83
2023/04/19 01:14:40;;;;;;;9.53;8.57;;;13.80;79.40;13.90;96815.00;;;;5019333;28;20215;-83
2023/04/19 01:17:08;;;;;;;9.13;8.27;;;13.80;79.40;13.90;96816.00;;;;5006773;28;20226;-83
2023/04/19 01:19:37;;;;;;;9.93;8.20;;;13.80;79.40;13.90;96806.00;;;;5027880;28;20202;-84
2023/04/19 01:22:06;;;;;;;9.13;8.13;;;13.80;79.40;13.90;96809.00;;;;5017969;28;20210;-85
2023/04/19 01:24:35;;;;;;;8.90;7.43;;;13.80;79.30;13.90;96801.00;;;;5020165;28;20765;-85
2023/04/19 01:27:02;;;;;;;8.93;7.93;;;13.80;79.40;13.90;96800.00;;;;5001619;28;20293;-84
2023/04/19 01:29:36;;;;;;;10.90;8.07;;;13.80;79.50;13.90;96799.00;;;;5002786;28;20209;-85
2023/04/19 01:32:03;;;;;;;8.50;7.70;;;13.80;79.50;13.90;96792.00;;;;5012391;28;20201;-84
2023/04/19 01:34:30;;;;;;;8.33;7.53;;;13.80;79.50;13.90;96788.00;;;;5031693;28;20707;-83
2023/04/19 01:36:58;;;;;;;8.13;7.27;;;13.80;79.40;13.90;96788.00;;;;4985986;28;20199;-83
2023/04/19 01:39:26;;;;;;;7.97;7.17;;;13.80;80.10;13.90;96782.00;;;;5022520;28;20201;-84
2023/04/19 01:41:57;;;;;;;9.70;8.37;;;13.80;79.40;13.90;96793.00;;;;5028234;28;20206;-84
2023/04/19 01:44:24;;;;;;;8.40;7.50;;;13.90;79.40;13.90;96786.00;;;;5023684;28;20292;-84
2023/04/19 01:46:52;;;;;;;7.87;7.17;;;13.90;79.50;14.00;96784.00;;;;5020891;28;20202;-83
2023/04/19 01:49:19;;;;;;;8.67;7.83;;;13.90;79.60;13.90;96778.00;;;;5025844;28;20198;-85
2023/04/19 01:51:46;;;;;;;10.03;7.70;;;13.90;79.70;14.00;96781.00;;;;5008619;28;20198;-84
2023/04/19 01:54:13;;;;;;;9.03;7.97;;;13.90;79.80;14.00;96773.00;;;;5014808;28;20218;-83
2023/04/19 01:56:41;;;;;;;10.40;8.47;;;13.90;79.80;14.00;96765.00;;;;5023974;28;20674;-84
2023/04/19 01:59:09;;;;;;;9.73;8.30;;;13.90;79.70;14.00;96771.00;;;;5023073;28;20208;-83
2023/04/19 02:01:36;;;;;;;10.40;8.03;;;13.90;79.60;14.00;96759.00;;;;5022435;28;20206;-84
2023/04/19 02:04:04;;;;;;;9.00;7.43;;;13.90;79.60;14.00;96767.00;;;;5017046;28;20238;-85
2023/04/19 02:06:31;;;;;;;11.27;8.40;;;13.90;79.50;14.10;96762.00;;;;5015099;28;20230;-84
2023/04/19 02:08:59;;;;;;;8.83;7.97;;;14.00;79.60;14.00;96761.00;;;;5016001;28;20205;-86
2023/04/19 02:11:26;;;;;;;8.57;7.73;;;13.90;79.40;14.00;96761.00;;;;5014679;28;20288;-85
2023/04/19 02:13:53;;;;;;;10.40;8.37;;;13.90;79.40;14.00;96754.00;;;;5022469;28;20264;-84
2023/04/19 02:16:22;;;;;;;8.50;7.70;;;13.90;79.40;14.00;96756.00;;;;5014684;28;20202;-84
2023/04/19 02:18:49;;;;;;;9.27;8.40;;;13.90;79.20;14.00;96754.00;;;;5009504;28;20660;-85
2023/04/19 02:21:16;;;;;;;9.20;8.27;;;14.00;79.10;14.00;96760.00;;;;5011716;28;20206;-88
2023/04/19 02:23:44;;;;;;;9.53;8.53;;;13.90;79.10;14.00;96749.00;;;;5037482;28;20237;-86
2023/04/19 02:26:11;;;;;;;8.60;7.70;;;13.90;79.00;14.00;96755.00;;;;5045607;28;20186;-83
2023/04/19 02:28:39;;;;;;;9.73;7.67;;;13.90;79.00;14.00;96752.00;;;;5016117;28;20190;-85
2023/04/19 02:31:07;;;;;;;8.53;7.73;;;13.90;79.10;14.00;96750.00;;;;5047327;28;20181;-84
2023/04/19 02:33:35;;;;;;;9.10;8.20;;;13.90;79.10;14.00;96748.00;;;;5053187;28;20252;-85
2023/04/19 02:36:03;;;;;;;8.80;7.90;;;13.90;79.00;14.00;96751.00;;;;5033550;28;20198;-83
2023/04/19 02:38:30;;;;;;;8.60;7.43;;;13.90;79.00;14.00;96751.00;;;;5027847;28;20292;-84
2023/04/19 02:40:59;;;;;;;8.73;7.93;;;13.90;79.00;14.00;96745.00;;;;4989367;28;20836;-84
2023/04/19 02:43:28;;;;;;;8.80;7.90;;;13.90;79.00;14.00;96740.00;;;;5020092;28;20233;-85
2023/04/19 02:45:55;;;;;;;9.50;8.50;;;13.90;79.00;14.00;96739.00;;;;4986800;28;20280;-83
2023/04/19 02:48:22;;;;;;;10.17;8.40;;;13.90;78.90;14.00;96736.00;;;;5019843;28;20233;-85
2023/04/19 02:50:51;;;;;;;9.17;8.27;;;13.90;79.00;14.00;96732.00;;;;5020849;28;20241;-83
2023/04/19 02:53:19;;;;;;;13.47;7.07;;;13.90;78.90;14.00;96727.00;;;;5022288;28;20222;-84
2023/04/19 02:55:46;;;;;;;8.00;7.27;;;13.90;79.00;14.10;96728.00;;;;5030844;28;20225;-84
2023/04/19 02:58:13;;;;;;;9.20;8.30;;;13.90;79.10;14.10;96730.00;;;;5031363;28;20221;-84
2023/04/19 03:00:42;;;;;;;8.13;7.33;;;14.00;79.10;14.10;96723.00;;;;5037699;28;20232;-84
2023/04/19 03:03:09;;;;;;;8.90;7.53;;;13.90;79.00;14.10;96725.00;;;;5042129;28;20272;-84
2023/04/19 03:05:36;;;;;;;8.67;7.83;;;14.00;79.00;14.00;96725.00;;;;5022495;28;20281;-84
2023/04/19 03:08:05;;;;;;;10.57;9.13;;;13.90;78.80;14.00;96722.00;;;;5024020;28;20229;-84
2023/04/19 03:10:32;;;;;;;8.73;7.90;;;13.90;78.70;14.00;96718.00;;;;4998090;28;20203;-84
2023/04/19 03:13:00;;;;;;;9.20;7.90;;;13.90;78.70;14.00;96720.00;;;;5015430;28;20738;-83
2023/04/19 03:15:27;;;;;;;9.67;8.50;;;13.90;78.70;14.00;96718.00;;;;4994208;28;20198;-85
2023/04/19 03:17:54;;;;;;;9.93;8.00;;;13.90;78.70;14.00;96714.00;;;;5013677;28;20266;-85
2023/04/19 03:20:23;;;;;;;9.80;8.83;;;13.90;78.70;14.00;96706.00;;;;5013501;28;20206;-85
2023/04/19 03:22:50;;;;;;;11.03;8.27;;;13.90;78.60;14.00;96712.00;;;;4999753;28;20230;-84
2023/04/19 03:25:19;;;;;;;10.57;8.77;;;13.90;78.60;14.00;96713.00;;;;5016011;28;20291;-85
2023/04/19 03:27:48;;;;;;;8.87;7.97;;;13.90;78.60;14.00;96711.00;;;;4997382;28;20209;-83
2023/04/19 03:30:16;;;;;;;9.40;8.20;;;13.90;78.60;13.90;96707.00;;;;5018837;28;20693;-84
2023/04/19 03:32:44;;;;;;;10.43;8.90;;;13.90;78.60;13.90;96702.00;;;;5015467;28;20225;-83
2023/04/19 03:35:12;;;;;;;11.03;8.47;;;13.90;78.50;13.90;96702.00;;;;5023227;28;20198;-84
2023/04/19 03:37:40;;;;;;;12.17;8.80;;;13.90;78.60;13.90;96698.00;;;;4998701;28;20204;-85
2023/04/19 03:40:08;;;;;;;9.57;8.53;;;13.90;78.50;13.90;96693.00;;;;4992480;28;20785;-84
2023/04/19 03:42:37;;;;;;;9.60;8.60;;;13.90;78.50;13.90;96700.00;;;;5017390;28;20225;-85
2023/04/19 03:45:06;;;;;;;10.17;9.10;;;13.80;78.30;13.80;96699.00;;;;5015872;28;20225;-84
2023/04/19 03:47:33;;;;;;;9.70;8.33;;;13.80;78.20;13.80;96688.00;;;;5001999;28;20209;-85
2023/04/19 03:50:00;;;;;;;9.07;8.10;;;13.80;78.20;13.80;96696.00;;;;4995302;28;20210;-85
2023/04/19 03:52:28;;;;;;;10.67;8.73;;;13.80;78.20;13.80;96688.00;;;;5022194;28;20313;-85
2023/04/19 03:54:55;;;;;;;10.80;8.63;;;13.80;78.20;13.70;96688.00;;;;5014147;28;20291;-85
2023/04/19 03:57:22;;;;;;;9.57;8.40;;;13.70;78.30;13.70;96691.00;;;;5000064;28;20198;-85
2023/04/19 03:59:51;;;;;;;10.63;8.20;;;13.70;78.40;13.70;96692.00;;;;5016649;28;20293;-84
2023/04/19 04:02:18;;;;;;;9.80;8.73;;;13.70;78.30;13.70;96694.00;;;;5025465;28;20203;-83
2023/04/19 04:04:46;;;;;;;12.60;8.77;;;13.70;78.50;13.70;96688.00;;;;5021299;28;20690;-83
2023/04/19 04:07:14;;;;;;;8.97;8.00;;;13.70;78.50;13.70;96693.00;;;;5013928;28;20212;-83
2023/04/19 04:09:41;;;;;;;10.70;9.00;;;13.60;78.50;13.60;96696.00;;;;5014917;28;20339;-83
2023/04/19 04:12:09;;;;;;;12.40;8.73;;;13.60;78.40;13.60;96698.00;;;;5015816;28;20289;-84
2023/04/19 04:14:39;;;;;;;10.87;8.77;;;13.60;78.40;13.60;96684.00;;;;5004612;28;20585;-84
2023/04/19 04:17:09;;;;;;;11.00;9.37;;;13.60;78.50;13.60;96683.00;;;;5006058;28;20197;-84
2023/04/19 04:19:38;;;;;;;11.33;9.10;;;13.60;78.40;13.60;96691.00;;;;5009256;28;20201;-83
2023/04/19 04:22:07;;;;;;;9.40;7.73;;;13.60;78.50;13.60;96691.00;;;;4991676;28;20248;-84
2023/04/19 04:24:43;;;;;;;11.03;8.83;;;13.60;78.50;13.60;96690.00;;;;4981241;28;20228;-84
2023/04/19 04:27:10;;;;;;;10.97;8.80;;;13.60;78.30;13.60;96684.00;;;;5001268;28;20228;-84
2023/04/19 04:29:38;;;;;;;9.33;8.37;;;13.60;78.50;13.60;96691.00;;;;5020756;28;20300;-84
2023/04/19 04:32:12;;;;;;;12.27;9.33;;;13.60;78.50;13.60;96687.00;;;;4969701;28;20198;-85
2023/04/19 04:34:41;;;;;;;9.77;8.00;;;13.60;78.40;13.60;96688.00;;;;5019240;28;20683;-84
2023/04/19 04:37:10;;;;;;;11.73;8.93;;;13.50;78.50;13.60;96691.00;;;;5024281;28;20257;-86
2023/04/19 04:39:38;;;;;;;11.40;8.73;;;13.50;78.60;13.60;96698.00;;;;5016520;28;20639;-84
2023/04/19 04:42:07;;;;;;;10.77;9.37;;;13.50;78.50;13.60;96688.00;;;;5022202;28;20209;-86
2023/04/19 04:44:36;;;;;;;11.77;9.40;;;13.50;78.60;13.60;96690.00;;;;5025781;28;20639;-82
2023/04/19 04:47:03;;;;;;;11.07;8.37;;;13.50;78.40;13.60;96690.00;;;;5024015;28;20593;-84
2023/04/19 04:49:32;;;;;;;10.03;8.70;;;13.50;78.40;13.60;96692.00;;;;5009230;28;20209;-85
2023/04/19 04:51:59;;;;;;;10.20;8.67;;;13.50;78.50;13.50;96689.00;;;;5008352;28;20194;-85
2023/04/19 04:54:26;;;;;;;13.37;9.60;;;13.50;78.40;13.50;96692.00;;;;5017210;28;20328;-84
2023/04/19 04:56:54;;;;;;;11.20;9.23;;;13.50;78.50;13.50;96696.00;;;;5020961;28;20278;-81
2023/04/19 04:59:21;;;;;;;9.70;8.03;;;13.50;78.40;13.50;96684.00;;;;5001316;28;20213;-84
2023/04/19 05:01:48;;;;;;;11.90;8.83;;;13.50;78.50;13.50;96682.00;;;;5027063;28;20228;-84
2023/04/19 05:04:16;;;;;;;12.70;9.63;;;13.50;78.60;13.50;96689.00;;;;5012558;28;20231;-83
2023/04/19 05:06:47;;;;;;;14.23;9.37;;;13.50;78.50;13.50;96693.00;;;;5032438;28;20200;-85
2023/04/19 05:09:14;;;;;;;10.33;8.40;;;13.50;78.50;13.50;96698.00;;;;5026036;28;20277;-84
2023/04/19 05:11:42;;;;;;;14.70;8.53;;;13.50;78.50;13.50;96695.00;;;;5000590;28;20202;-83
2023/04/19 05:14:09;;;;;;;9.87;8.63;;;13.50;78.60;13.60;96701.00;;;;5010384;28;20626;-85
2023/04/19 05:16:36;;;;;;;10.53;8.67;;;13.50;78.70;13.50;96698.00;;;;5032368;28;20230;-83
2023/04/19 05:19:03;;;;;;;12.50;9.27;;;13.50;78.50;13.60;96687.00;;;;5029507;28;20772;-87
2023/04/19 05:21:31;;;;;;;10.87;8.73;;;13.50;78.50;13.60;96682.00;;;;5038668;28;20230;-87
2023/04/19 05:24:00;;;;;;;9.90;8.63;;;13.50;78.60;13.70;96685.00;;;;5021316;28;20249;-86
2023/04/19 05:26:27;;;;;;;12.07;8.70;;;13.50;78.60;13.70;96691.00;;;;5034249;28;20222;-86
2023/04/19 05:28:55;;;;;;;11.63;9.33;;;13.60;78.70;13.80;96684.00;;;;5035113;28;20634;-85
2023/04/19 05:31:23;;;;;;;11.53;9.53;;;13.60;78.50;13.80;96690.00;;;;5016169;28;20198;-85
2023/04/19 05:33:50;;;;;;;13.20;9.53;;;13.60;78.50;13.80;96690.00;;;;5029208;28;20271;-85
2023/04/19 05:36:19;;;;;;;12.77;10.17;;;13.60;78.40;13.80;96685.00;;;;4997779;28;20198;-87
2023/04/19 05:38:46;;;;;;;11.43;8.77;;;13.60;78.10;13.80;96684.00;;;;5015776;28;20612;-86
2023/04/19 05:41:21;;;;;;;13.23;10.27;;;13.60;78.10;13.70;96681.00;;;;5011006;28;20206;-85
2023/04/19 05:43:48;;;;;;;13.93;10.23;;;13.60;78.00;13.80;96681.00;;;;5013295;28;20221;-85
2023/04/19 05:46:16;;;;;;;12.80;9.37;;;13.60;78.10;13.80;96679.00;;;;5008037;28;20257;-86
2023/04/19 05:48:43;;;;;;;11.30;8.70;;;13.60;78.10;13.80;96689.00;;;;5018558;28;20655;-83
2023/04/19 05:51:11;;;;;;;12.80;9.77;;;13.60;78.20;13.80;96684.00;;;;5020519;28;20745;-84
2023/04/19 05:53:38;;;;;;;14.67;10.90;;;13.60;78.20;13.80;96685.00;;;;5018621;28;20698;-84
2023/04/19 05:56:06;;;;;;;10.77;9.30;;;13.60;78.10;13.80;96682.00;;;;5003140;28;20204;-84
2023/04/19 05:58:34;;;;;;;13.97;10.03;;;13.60;78.20;13.80;96683.00;;;;4999322;28;20677;-85
2023/04/19 06:01:03;;;;;;;12.10;9.77;;;13.60;78.00;13.90;96686.00;;;;4990063;28;20198;-83
2023/04/19 06:03:32;;;;;;;12.53;10.17;;;13.70;78.20;13.90;96686.00;;;;5012200;28;20217;-84
2023/04/19 06:05:59;;;;;;;12.57;9.97;;;13.70;78.20;14.00;96683.00;;;;5011818;28;20224;-84
2023/04/19 06:08:27;;;;;;;14.13;10.10;;;13.70;78.10;14.00;96684.00;;;;5015038;28;20190;-84
2023/04/19 06:10:55;;;;;;;12.17;9.10;;;13.70;78.20;14.00;96674.00;;;;5013962;28;20739;-86
2023/04/19 06:13:23;;;;;;;14.53;10.70;;;13.80;78.20;14.00;96682.00;;;;4997199;28;20272;-85
2023/04/19 06:15:51;;;;;;;12.67;9.63;;;13.80;78.30;14.10;96680.00;;;;4981759;28;20206;-84
2023/04/19 06:18:19;;;;;;;11.23;8.57;;;13.80;78.20;14.10;96678.00;;;;5014973;28;20702;-83
2023/04/19 06:20:46;;;;;;;12.90;9.93;;;13.80;78.10;14.10;96679.00;;;;5018094;28;20276;-84
2023/04/19 06:23:13;;;;;;;14.30;10.60;;;13.90;78.10;14.10;96670.00;;;;5012977;28;20309;-85
2023/04/19 06:25:40;;;;;;;15.17;10.73;;;13.90;78.00;14.10;96674.00;;;;5016572;28;20237;-85
2023/04/19 06:28:08;;;;;;;13.00;10.43;;;13.90;78.20;14.10;96672.00;;;;5017174;28;20598;-84
2023/04/19 06:30:35;;;;;;;12.63;9.27;;;13.90;78.20;14.20;96669.00;;;;4999171;28;20194;-84
2023/04/19 06:33:04;;;;;;;12.20;9.97;;;14.00;78.20;14.20;96667.00;;;;5022497;28;20317;-85
2023/04/19 06:35:32;;;;;;;13.10;11.03;;;14.00;78.00;14.20;96674.00;;;;5016084;28;20660;-84
2023/04/19 06:38:01;;;;;;;12.77;10.20;;;14.00;78.10;14.30;96668.00;;;;5017008;28;20631;-84
2023/04/19 06:40:30;;;;;;;13.33;10.00;;;14.00;78.00;14.30;96661.00;;;;5017664;28;20256;-84
2023/04/19 06:42:57;;;;;;;11.53;9.77;;;14.10;78.10;14.40;96670.00;;;;5018218;28;20228;-84
2023/04/19 06:45:26;;;;;;;13.87;10.33;;;14.10;78.00;14.50;96661.00;;;;5025841;28;20229;-82
2023/04/19 06:47:55;;;;;;;11.53;9.67;;;14.20;78.10;14.60;96661.00;;;;5016564;28;20210;-84
2023/04/19 06:50:25;;;;;;;12.17;9.87;;;14.20;78.20;14.70;96666.00;;;;5001417;28;20644;-85
2023/04/19 06:52:54;;;;;;;12.50;9.90;;;14.30;78.00;14.70;96656.00;;;;5014340;28;20222;-84
2023/04/19 06:55:21;;;;;;;14.80;10.03;;;14.30;78.00;14.80;96660.00;;;;5003708;28;20204;-85
2023/04/19 06:57:49;;;;;;;12.63;10.20;;;14.40;77.90;14.90;96660.00;;;;5021906;28;20232;-85
2023/04/19 07:00:17;;;;;;;11.93;9.50;;;14.50;77.90;15.00;96663.00;;;;5020063;28;20221;-85
2023/04/19 07:02:44;;;;;;;11.60;9.47;;;14.50;78.00;15.10;96663.00;;;;5018433;28;20313;-86
2023/04/19 07:05:12;;;;;;;11.90;10.40;;;14.60;78.10;15.20;96657.00;;;;5004548;28;20316;-85
2023/04/19 07:07:43;;;;;;;14.50;10.37;;;14.70;78.00;15.30;96650.00;;;;5021907;28;20205;-83
2023/04/19 07:10:11;;;;;;;12.20;10.27;;;14.80;77.60;15.40;96652.00;;;;5005153;28;20206;-84
2023/04/19 07:12:39;;;;;;;12.33;9.97;;;14.80;77.70;15.40;96653.00;;;;5003048;28;20236;-85
2023/04/19 07:15:09;;;;;;;12.17;9.80;;;14.90;77.60;15.50;96648.00;;;;4996044;28;20202;-85
2023/04/19 07:17:37;;;;;;;10.33;9.27;;;15.00;77.40;15.60;96654.00;;;;5019860;28;20209;-85
2023/04/19 07:20:06;;;;;;;12.77;10.00;;;15.10;77.50;15.70;96639.00;;;;5019986;28;20197;-85
2023/04/19 07:22:34;;;;;;;11.67;9.33;;;15.10;77.40;15.80;96644.00;;;;5010138;28;20232;-85
2023/04/19 07:25:02;;;;;;;12.40;10.30;;;15.30;77.30;15.90;96647.00;;;;5018908;28;20190;-85
2023/04/19 07:27:30;;;;;;;12.60;9.57;;;15.30;77.10;16.00;96651.00;;;;5011184;28;20606;-85
2023/04/19 07:29:57;;;;;;;10.03;9.00;;;15.40;76.90;16.10;96648.00;;;;5007948;28;20682;-85
2023/04/19 07:32:25;;;;;;;13.30;10.03;;;15.50;76.70;16.10;96651.00;;;;5008652;28;20213;-85
2023/04/19 07:34:53;;;;;;;12.93;9.37;;;15.60;76.50;16.20;96643.00;;;;5014446;28;20714;-85
2023/04/19 07:37:23;;;;;;;11.30;9.47;;;15.60;76.00;16.20;96659.00;;;;5018443;28;20281;-85
2023/04/19 07:39:50;;;;;;;11.97;9.57;;;15.70;76.00;16.20;96655.00;;;;4993724;28;20198;-85
2023/04/19 07:42:19;;;;;;;10.00;9.00;;;15.70;75.80;16.20;96647.00;;;;5013156;28;20225;-85
2023/04/19 07:44:46;;;;;;;11.23;9.00;;;15.80;75.60;16.30;96651.00;;;;4995535;28;20779;-85
2023/04/19 07:47:13;;;;;;;9.70;8.20;;;15.80;75.60;16.20;96645.00;;;;4997006;28;20253;-85
2023/04/19 07:49:40;;;;;;;10.73;9.07;;;15.80;75.10;16.20;96652.00;;;;5012076;28;20285;-86
2023/04/19 07:52:08;;;;;;;11.57;9.13;;;15.80;74.80;16.20;96647.00;;;;5009155;28;20197;-85
2023/04/19 07:54:38;;;;;;;11.80;9.77;;;15.80;74.70;16.20;96652.00;;;;5014150;28;20262;-85
2023/04/19 07:57:05;;;;;;;10.40;8.43;;;15.80;74.70;16.20;96644.00;;;;5031653;28;20189;-86
2023/04/19 07:59:33;;;;;;;12.00;9.07;;;15.80;74.50;16.20;96637.00;;;;5008507;28;20350;-85
2023/04/19 08:02:01;;;;;;;13.03;8.50;;;15.90;74.70;16.20;96643.00;;;;5018325;28;20206;-85
2023/04/19 08:04:29;;;;;;;11.13;9.10;;;15.90;74.70;16.20;96636.00;;;;4995529;28;20222;-85
2023/04/19 08:06:56;;;;;;;10.00;8.83;;;15.90;74.50;16.20;96635.00;;;;5017695;28;20229;-85
2023/04/19 08:09:27;;;;;;;11.03;9.43;;;15.90;74.40;16.20;96638.00;;;;5017885;28;20284;-85
2023/04/19 08:11:56;;;;;;;10.53;9.27;;;15.90;74.40;16.20;96636.00;;;;5017359;28;20206;-86
2023/04/19 08:14:23;;;;;;;11.07;8.93;;;15.90;74.60;16.30;96635.00;;;;5015985;28;20280;-84
2023/04/19 08:16:52;;;;;;;12.50;9.63;;;15.90;74.60;16.30;96634.00;;;;4999631;28;20206;-85
2023/04/19 08:19:19;;;;;;;10.07;8.80;;;16.00;74.60;16.40;96636.00;;;;5017517;28;20202;-85
2023/04/19 08:21:47;;;;;;;11.17;8.93;;;16.00;74.70;16.40;96635.00;;;;5017471;28;20224;-85
2023/04/19 08:24:14;;;;;;;10.50;8.90;;;16.00;74.40;16.40;96624.00;;;;5017348;28;20767;-85
2023/04/19 08:26:43;;;;;;;11.47;9.50;;;16.00;74.20;16.40;96624.00;;;;5016859;28;20249;-85
2023/04/19 08:29:11;;;;;;;12.40;9.33;;;16.00;74.30;16.30;96636.00;;;;5001328;28;20280;-85
2023/04/19 08:31:39;;;;;;;11.80;9.47;;;16.00;74.10;16.30;96629.00;;;;4999543;28;20204;-85
2023/04/19 08:34:07;;;;;;;11.63;9.43;;;16.00;73.90;16.20;96631.00;;;;5016748;28;20292;-85
2023/04/19 08:36:37;;;;;;;10.23;8.63;;;16.00;73.50;16.20;96627.00;;;;5016891;28;20204;-85
2023/04/19 08:39:04;;;;;;;11.13;9.73;;;15.90;73.30;16.20;96628.00;;;;5019411;28;20296;-85
2023/04/19 08:41:32;;;;;;;13.83;9.73;;;15.90;73.50;16.20;96623.00;;;;5022804;28;20233;-85
2023/04/19 08:44:02;;;;;;;12.87;9.20;;;15.90;73.90;16.30;96630.00;;;;4997037;28;20221;-85
2023/04/19 08:46:33;;;;;;;10.80;9.07;;;15.90;73.90;16.30;96625.00;;;;5014918;28;20218;-85
2023/04/19 08:49:01;;;;;;;10.60;9.13;;;16.00;73.90;16.30;96614.00;;;;5016863;28;20667;-85
2023/04/19 08:51:32;;;;;;;10.20;8.90;;;16.00;73.80;16.40;96620.00;;;;5021547;28;20293;-85
2023/04/19 08:54:00;;;;;;;11.20;8.77;;;16.00;73.90;16.40;96623.00;;;;4996321;28;20237;-85
2023/04/19 08:56:28;;;;;;;10.90;9.10;;;16.00;73.90;16.40;96620.00;;;;5009799;28;20206;-85
2023/04/19 08:58:55;;;;;;;10.43;9.07;;;16.00;74.00;16.40;96620.00;;;;4997469;28;20569;-85
2023/04/19 09:01:23;;;;;;;9.90;8.70;;;16.00;73.80;16.40;96613.00;;;;4996562;28;20678;-85
2023/04/19 09:03:52;;;;;;;9.13;8.23;;;16.10;73.70;16.40;96603.00;;;;5019506;28;20249;-85
2023/04/19 09:06:20;;;;;;;10.80;9.33;;;16.10;73.80;16.50;96607.00;;;;4973040;28;20703;-85
2023/04/19 09:08:51;;;;;;;9.40;8.40;;;16.10;73.70;16.50;96599.00;;;;5006292;28;20233;-85
2023/04/19 09:11:19;;;;;;;11.10;9.57;;;16.10;73.50;16.60;96605.00;;;;4993763;28;20687;-85
2023/04/19 09:13:46;;;;;;;10.23;8.47;;;16.10;73.70;16.60;96603.00;;;;5025557;28;20226;-84
2023/04/19 09:16:25;;;;;;;12.00;8.77;;;16.20;73.50;16.70;96592.00;;;;5014537;28;20298;-85
2023/04/19 09:18:58;;;;;;;9.40;8.20;;;16.20;72.90;16.70;96591.00;;;;4988232;28;20211;-85
2023/04/19 09:21:29;;;;;;;9.63;8.00;;;16.30;73.60;16.80;96592.00;;;;5016743;28;20194;-85
2023/04/19 09:24:00;;;;;;;9.10;8.20;;;16.30;73.40;16.90;96592.00;;;;5025060;28;20218;-85
2023/04/19 09:26:29;;;;;;;10.47;8.37;;;16.30;73.70;17.00;96593.00;;;;5024624;28;20218;-85
2023/04/19 09:29:00;;;;;;;10.07;8.60;;;16.40;73.70;17.10;96583.00;;;;5016679;28;20573;-85
2023/04/19 09:31:30;;;;;;;10.33;8.50;;;16.50;73.60;17.20;96582.00;;;;5016048;28;20198;-87
2023/04/19 09:33:58;;;;;;;9.77;7.97;;;16.60;73.50;17.30;96584.00;;;;5007791;28;20221;-85
2023/04/19 09:36:31;;;;;;;10.10;8.27;;;16.60;72.70;17.30;96581.00;;;;5022606;28;20208;-85
2023/04/19 09:39:00;;;;;;;8.70;7.80;;;16.70;72.20;17.30;96576.00;;;;4996912;28;20202;-85
2023/04/19 09:41:27;;;;;;;8.40;7.50;;;16.80;72.00;17.30;96580.00;;;;5015876;28;20232;-85
2023/04/19 09:44:10;;;;;;;9.17;8.17;;;16.80;71.90;17.30;96578.00;;;;5021936;28;20714;-86
2023/04/19 09:46:39;;;;;;;9.40;7.60;;;16.80;71.70;17.30;96574.00;;;;5014814;28;20845;-85
2023/04/19 09:49:22;;;;;;;8.77;7.87;;;16.80;71.70;17.30;96566.00;;;;4998352;28;20220;-87
2023/04/19 09:51:52;;;;;;;9.73;7.80;;;16.80;70.30;17.20;96571.00;;;;5013732;28;20194;-84
2023/04/19 09:54:24;;;;;;;9.73;8.00;;;16.80;71.50;17.20;96564.00;;;;5019139;28;20656;-82
2023/04/19 09:56:52;;;;;;;9.00;7.97;;;16.80;71.10;17.20;96567.00;;;;5015331;28;20237;-85
2023/04/19 09:59:20;;;;;;;11.37;8.17;;;16.80;71.30;17.20;96562.00;;;;5027152;28;20559;-85
2023/04/19 10:01:53;;;;;;;8.73;7.83;;;16.80;71.40;17.20;96560.00;;;;4998912;28;20893;-86
2023/04/19 10:04:22;;;;;;;8.93;8.03;;;16.80;71.70;17.20;96559.00;;;;5015790;28;20217;-85
2023/04/19 10:06:59;;;;;;;8.57;7.73;;;16.80;71.40;17.20;96558.00;;;;4999747;28;20230;-85
2023/04/19 10:09:31;;;;;;;8.53;7.73;;;16.80;71.60;17.20;96552.00;;;;5019247;28;20224;-86
2023/04/19 10:12:01;;;;;;;10.33;8.17;;;16.80;71.40;17.10;96555.00;;;;5007100;28;20242;-84
2023/04/19 10:14:36;;;;;;;9.20;8.30;;;16.80;71.50;17.10;96546.00;;;;5008869;28;20221;-85
2023/04/19 10:17:03;;;;;;;9.90;8.87;;;16.80;71.90;17.10;96544.00;;;;5030338;28;20198;-87
2023/04/19 10:19:36;;;;;;;8.40;7.60;;;16.70;72.30;17.10;96539.00;;;;5029274;28;20624;-85
2023/04/19 10:22:05;;;;;;;10.17;8.17;;;16.70;72.40;17.10;96541.00;;;;5021760;28;20195;-85
2023/04/19 10:24:34;;;;;;;10.80;8.33;;;16.70;72.50;17.10;96532.00;;;;5011801;28;20221;-85
2023/04/19 10:27:13;;;;;;;9.13;8.17;;;16.70;72.20;17.00;96537.00;;;;5023483;28;20666;-85
2023/04/19 10:30:02;;;;;;;9.97;8.67;;;16.70;71.30;17.00;96534.00;;;;5016299;28;20190;-85
2023/04/19 10:32:38;;;;;;;9.10;8.07;;;16.70;71.40;17.00;96546.00;;;;5018200;28;20222;-85
2023/04/19 10:35:10;;;;;;;9.03;8.17;;;16.70;72.40;17.00;96535.00;;;;5018657;28;20285;-84
2023/04/19 10:37:41;;;;;;;9.87;8.43;;;16.60;72.30;16.90;96535.00;;;;5009776;28;20202;-86
2023/04/19 10:41:10;;;;;;;12.87;8.90;;;16.60;72.30;16.90;96533.00;;;;5031891;28;20206;-86
2023/04/19 10:43:39;;;;;;;9.13;8.17;;;16.60;71.40;16.90;96528.00;;;;5030049;28;20197;-87
2023/04/19 10:46:14;;;;;;;10.80;9.10;;;16.60;72.90;16.80;96531.00;;;;5029547;28;20210;-86
2023/04/19 10:49:02;;;;;;;12.23;8.93;;;16.60;72.60;16.80;96530.00;;;;5038532;28;20223;-86
2023/04/19 10:51:35;;;;;;;9.50;8.50;;;16.60;73.00;16.80;96519.00;;;;5032764;28;20202;-87
2023/04/19 10:54:05;;;;;;;9.77;8.63;;;16.50;72.80;16.80;96515.00;;;;5036246;28;20221;-86
2023/04/19 10:57:10;;;;;;;9.37;8.43;;;16.50;73.00;16.70;96515.00;;;;4994632;28;20260;-85